Главная страница
METAR-TAF:

METAR-TAF

Аэропорты :

Клуж-Напока, Румыния

широта: 46-47N, долгота: 023-34E, высота над уровнем моря: 410 м

Текущие метеонаблюдения

Эта сводка был подготовлена 49 минут назад, в 23:30 UTC
Ветер 3 Узел от западно-северо-западный, изменяющийся между западный и северно-северо-западный
Температура 15°C
Влажность 88%
Давление 1018 hPa
Видимость 10 км и более
Нет облачности ниже 1500 м, и нет кучево-дождевой облачности

METAR: LRCL 232330Z 30003KT 280V340 CAVOK 15/13 Q1018

Время: 03:19 (00:19 UTC)

Прогноз

Эта сводка был подготовлена 1 час и 19 минут назад, в 23:00 UTC
Прогноз действительный с 24-го 00 UTC до 24-го 09 UTC
Ветер 4 Узел переменных направлений
Видимость 10 км и более
Нет облачности ниже 1500 м, и нет кучево-дождевой облачности
Вероятность 30% :
временами
С 24-го 02 UTC до 24-го 05 UTC
Видимость: 3000 м
дымка

TAF: LRCL 232300Z 2400/2409 VRB04KT CAVOK PROB30 TEMPO 2402/2405 3000 BR

Метеонаблюдения и прогнозы для более 4000 аэропортов (сводки METAR и TAF).

Имеющиеся станции представлены на карте желтыми и красными точками.

Чтобы увидеть название станции, наведите на нее мышь.

Затем щелкните, чтобы увидеть метеонаблюдения и метеопрогнозы.

Управление картой: чтобы увеличить масштаб, щелкните зеленые кнопки с черным крестиком; чтобы уменьшить масштаб, щелкните зеленую кнопку с тире; для просмотра соседних карт щелкайте зеленые стрелки.


METAR-TAF: